createdAt,value
2022-08-26T00:01:54.327Z,99611.56
2022-08-26T00:04:23.714Z,99613.75
2022-08-26T00:06:51.326Z,99614.13
2022-08-26T00:09:18.181Z,99617.91
2022-08-26T00:11:46.082Z,99617.31
2022-08-26T00:14:16.307Z,99606.06
2022-08-26T00:16:47.545Z,99614.34
2022-08-26T00:19:16.944Z,99620.00
2022-08-26T00:21:43.986Z,99612.56
2022-08-26T00:24:10.910Z,99610.00
2022-08-26T00:26:39.510Z,99610.13
2022-08-26T00:29:08.589Z,99613.63
2022-08-26T00:31:36.683Z,99608.75
2022-08-26T00:34:04.070Z,99605.59
2022-08-26T00:36:31.929Z,99605.13
2022-08-26T00:38:59.210Z,99603.63
2022-08-26T00:41:26.171Z,99601.19
2022-08-26T00:43:53.281Z,99608.41
2022-08-26T00:46:25.357Z,99599.75
2022-08-26T00:48:58.236Z,99598.16
2022-08-26T00:51:29.713Z,99594.16
2022-08-26T00:54:10.747Z,99593.50
2022-08-26T00:56:55.285Z,99591.09
2022-08-26T00:59:23.583Z,99603.38
2022-08-26T01:01:51.569Z,99602.78
2022-08-26T01:04:21.437Z,99602.16
2022-08-26T01:06:50.139Z,99596.94
2022-08-26T01:09:19.384Z,99596.19
2022-08-26T01:11:48.982Z,99600.94
2022-08-26T01:14:17.494Z,99599.25
2022-08-26T01:16:48.203Z,99596.69
2022-08-26T01:19:51.026Z,99595.69
2022-08-26T01:22:26.607Z,99592.41
2022-08-26T01:24:55.608Z,99582.75
2022-08-26T01:27:23.426Z,99583.53
2022-08-26T01:29:51.698Z,99585.84
2022-08-26T01:32:23.340Z,99588.53
2022-08-26T01:34:50.943Z,99584.97
2022-08-26T01:37:23.206Z,99588.41
2022-08-26T01:39:53.322Z,99578.88
2022-08-26T01:42:23.850Z,99585.84
2022-08-26T01:45:18.394Z,99582.16
2022-08-26T01:47:48.740Z,99569.88
2022-08-26T01:50:28.042Z,99574.00
2022-08-26T01:52:59.155Z,99573.78
2022-08-26T01:55:33.450Z,99572.81
2022-08-26T01:58:06.267Z,99572.69
2022-08-26T02:00:35.132Z,99566.47
2022-08-26T02:03:21.629Z,99565.38
2022-08-26T02:05:54.226Z,99561.00
2022-08-26T02:08:38.096Z,99560.88
2022-08-26T02:11:05.470Z,99563.53
2022-08-26T02:13:38.012Z,99569.91
2022-08-26T02:16:05.660Z,99563.06
2022-08-26T02:18:38.647Z,99569.16
2022-08-26T02:21:07.452Z,99559.41
2022-08-26T02:23:35.816Z,99564.03
2022-08-26T02:26:17.826Z,99563.78
2022-08-26T02:28:58.554Z,99559.41
2022-08-26T02:31:25.669Z,99559.53
2022-08-26T02:33:52.535Z,99561.09
2022-08-26T02:36:21.816Z,99566.97
2022-08-26T02:38:48.731Z,99559.53
2022-08-26T02:41:15.615Z,99566.81
2022-08-26T02:43:44.944Z,99570.25
2022-08-26T02:46:11.749Z,99559.41
2022-08-26T02:48:48.203Z,99568.41
2022-08-26T02:51:15.620Z,99568.06
2022-08-26T02:53:42.579Z,99572.81
2022-08-26T02:56:09.893Z,99564.53
2022-08-26T02:58:37.060Z,99569.25
2022-08-26T03:01:04.760Z,99575.97
2022-08-26T03:03:32.710Z,99575.25
2022-08-26T03:05:59.484Z,99572.47
2022-08-26T03:08:26.270Z,99578.66
2022-08-26T03:10:54.100Z,99579.63
2022-08-26T03:13:20.936Z,99576.72
2022-08-26T03:15:47.987Z,99577.59
2022-08-26T03:18:15.250Z,99580.38
2022-08-26T03:20:42.034Z,99576.59
2022-08-26T03:23:10.968Z,99579.03
2022-08-26T03:25:37.839Z,99580.75
2022-08-26T03:28:05.018Z,99580.16
2022-08-26T03:30:45.385Z,99575.13
2022-08-26T03:33:14.023Z,99574.00
2022-08-26T03:35:43.580Z,99579.63
2022-08-26T03:38:11.139Z,99568.69
2022-08-26T03:40:39.071Z,99576.53
2022-08-26T03:43:09.509Z,99578.13
2022-08-26T03:45:37.720Z,99571.53
2022-08-26T03:48:05.329Z,99562.03
2022-08-26T03:50:34.218Z,99570.50
2022-08-26T03:53:04.070Z,99568.63
2022-08-26T03:55:32.685Z,99571.00
2022-08-26T03:58:00.788Z,99566.34
2022-08-26T04:00:28.437Z,99560.28
2022-08-26T04:02:55.534Z,99566.22
2022-08-26T04:05:23.194Z,99566.25
2022-08-26T04:07:51.179Z,99562.66
2022-08-26T04:10:29.011Z,99561.44
2022-08-26T04:12:58.820Z,99569.63
2022-08-26T04:15:27.048Z,99562.25
2022-08-26T04:17:54.055Z,99561.16
2022-08-26T04:20:22.859Z,99554.66
2022-08-26T04:22:50.837Z,99559.50
2022-08-26T04:25:18.647Z,99549.44
2022-08-26T04:27:48.286Z,99552.28
2022-08-26T04:30:16.714Z,99544.63
2022-08-26T04:32:43.962Z,99550.13
2022-08-26T04:35:10.902Z,99555.22
2022-08-26T04:37:37.783Z,99544.31
2022-08-26T04:40:05.941Z,99543.16
2022-08-26T04:42:33.486Z,99547.94
2022-08-26T04:45:01.163Z,99543.69
2022-08-26T04:47:32.102Z,99539.66
2022-08-26T04:50:00.019Z,99545.97
2022-08-26T04:52:26.813Z,99540.41
2022-08-26T04:54:55.031Z,99538.50
2022-08-26T04:57:23.328Z,99534.59
2022-08-26T04:59:50.214Z,99532.66
2022-08-26T05:02:17.145Z,99532.22
2022-08-26T05:04:44.044Z,99540.44
2022-08-26T05:07:11.485Z,99530.84
2022-08-26T05:09:40.652Z,99523.00
2022-08-26T05:12:08.140Z,99528.31
2022-08-26T05:14:36.618Z,99529.53
2022-08-26T05:17:04.127Z,99532.03
2022-08-26T05:19:31.902Z,99526.13
2022-08-26T05:22:00.050Z,99525.28
2022-08-26T05:24:27.434Z,99528.47
2022-08-26T05:26:54.582Z,99515.72
2022-08-26T05:29:23.850Z,99526.88
2022-08-26T05:31:52.325Z,99527.88
2022-08-26T05:34:20.830Z,99520.88
2022-08-26T05:36:48.288Z,99526.50
2022-08-26T05:39:15.400Z,99525.06
2022-08-26T05:41:44.873Z,99518.22
2022-08-26T05:44:14.775Z,99526.41
2022-08-26T05:46:43.953Z,99531.47
2022-08-26T05:49:12.995Z,99527.41
2022-08-26T05:51:42.281Z,99526.34
2022-08-26T05:54:10.455Z,99526.63
2022-08-26T05:56:38.625Z,99526.22
2022-08-26T05:59:06.655Z,99527.47
2022-08-26T06:01:42.522Z,99524.16
2022-08-26T06:04:10.210Z,99523.06
2022-08-26T06:06:41.599Z,99517.78
2022-08-26T06:09:11.208Z,99524.13
2022-08-26T06:11:40.323Z,99525.50
2022-08-26T06:14:08.445Z,99520.41
2022-08-26T06:16:41.705Z,99516.75
2022-08-26T06:19:10.502Z,99522.72
2022-08-26T06:21:40.762Z,99520.03
2022-08-26T06:24:29.487Z,99521.44
2022-08-26T06:27:01.588Z,99523.25
2022-08-26T06:29:30.935Z,99524.41
2022-08-26T06:31:58.672Z,99514.88
2022-08-26T06:34:30.465Z,99520.28
2022-08-26T06:36:59.854Z,99517.34
2022-08-26T06:39:30.742Z,99520.22
2022-08-26T06:41:59.088Z,99513.78
2022-08-26T06:44:28.084Z,99513.16
2022-08-26T06:46:56.582Z,99508.16
2022-08-26T06:49:26.735Z,99516.84
2022-08-26T06:52:00.527Z,99493.13
2022-08-26T06:54:32.235Z,99500.81
2022-08-26T06:57:01.855Z,99503.97
2022-08-26T06:59:31.813Z,99509.66
2022-08-26T07:02:00.780Z,99505.44
2022-08-26T07:04:30.697Z,99503.66
2022-08-26T07:06:59.427Z,99511.16
2022-08-26T07:09:31.214Z,99503.44
2022-08-26T07:12:00.788Z,99520.00
2022-08-26T07:14:29.430Z,99511.06
2022-08-26T07:16:56.789Z,99502.66
2022-08-26T07:19:31.067Z,99504.38
2022-08-26T07:22:02.284Z,99498.06
2022-08-26T07:24:31.191Z,99495.72
2022-08-26T07:27:01.327Z,99495.19
2022-08-26T07:29:29.272Z,99491.91
2022-08-26T07:31:56.365Z,99487.63
2022-08-26T07:34:24.166Z,99473.16
2022-08-26T07:36:51.674Z,99478.41
2022-08-26T07:39:19.403Z,99476.59
2022-08-26T07:41:47.396Z,99477.06
2022-08-26T07:44:15.572Z,99471.41
2022-08-26T07:46:44.254Z,99476.94
2022-08-26T07:49:20.176Z,99471.94
2022-08-26T07:51:47.201Z,99478.47
2022-08-26T07:54:14.175Z,99465.78
2022-08-26T07:56:41.006Z,99470.53
2022-08-26T07:59:13.420Z,99467.13
2022-08-26T08:01:41.412Z,99463.16
2022-08-26T08:04:17.368Z,99472.22
2022-08-26T08:06:46.360Z,99466.44
2022-08-26T08:09:16.123Z,99464.06
2022-08-26T08:11:45.018Z,99460.75
2022-08-26T08:14:12.679Z,99461.25
2022-08-26T08:16:45.831Z,99451.88
2022-08-26T08:19:14.484Z,99463.13
2022-08-26T08:21:41.691Z,99456.84
2022-08-26T08:24:08.759Z,99455.38
2022-08-26T08:26:35.718Z,99455.16
2022-08-26T08:29:03.672Z,99451.63
2022-08-26T08:34:21.436Z,99455.72
2022-08-26T08:36:49.614Z,99450.66
2022-08-26T08:39:17.673Z,99443.72
2022-08-26T08:41:59.837Z,99439.75
2022-08-26T08:47:00.398Z,99440.63
2022-08-26T08:49:29.245Z,99433.16
2022-08-26T08:52:10.809Z,99436.34
2022-08-26T08:54:38.701Z,99434.66
2022-08-26T08:57:26.621Z,99437.47
2022-08-26T09:00:09.014Z,99445.09
2022-08-26T09:02:45.529Z,99427.88
2022-08-26T09:05:40.217Z,99431.88
2022-08-26T09:08:21.067Z,99429.63
2022-08-26T09:10:54.466Z,99431.81
2022-08-26T09:13:25.117Z,99416.22
2022-08-26T09:16:15.889Z,99427.56
2022-08-26T09:18:54.903Z,99414.56
2022-08-26T09:21:25.277Z,99416.31
2022-08-26T09:23:56.842Z,99416.75
2022-08-26T09:26:41.278Z,99404.13
2022-08-26T09:32:13.058Z,99406.38
2022-08-26T09:34:55.978Z,99404.50
2022-08-26T09:37:36.788Z,99391.13
2022-08-26T09:40:12.774Z,99407.53
2022-08-26T09:42:39.736Z,99403.50
2022-08-26T09:45:10.556Z,99396.50
2022-08-26T09:47:52.929Z,99400.03
2022-08-26T09:50:29.163Z,99401.09
2022-08-26T09:53:30.419Z,99398.69
2022-08-26T09:56:12.909Z,99405.25
2022-08-26T09:58:43.064Z,99402.41
2022-08-26T10:01:30.109Z,99394.75
2022-08-26T10:04:06.845Z,99414.00
2022-08-26T10:06:39.419Z,99403.56
2022-08-26T10:09:10.992Z,99403.72
2022-08-26T10:11:49.114Z,99414.97
2022-08-26T10:14:31.035Z,99406.81
2022-08-26T10:17:11.276Z,99403.50
2022-08-26T10:19:57.046Z,99405.19
2022-08-26T10:22:24.479Z,99388.09
2022-08-26T10:24:58.064Z,99391.66
2022-08-26T10:27:24.875Z,99405.88
2022-08-26T10:29:57.270Z,99404.59
2022-08-26T10:32:35.226Z,99405.00
2022-08-26T10:35:11.908Z,99389.22
2022-08-26T10:37:45.031Z,99395.09
2022-08-26T10:40:23.799Z,99390.28
2022-08-26T10:43:11.558Z,99393.19
2022-08-26T10:45:51.104Z,99389.75
2022-08-26T10:48:44.008Z,99391.41
2022-08-26T10:51:14.677Z,99375.34
2022-08-26T10:53:51.475Z,99382.53
2022-08-26T10:56:52.832Z,99381.41
2022-08-26T10:59:25.703Z,99388.44
2022-08-26T11:02:24.661Z,99386.59
2022-08-26T11:04:55.108Z,99381.59
2022-08-26T11:07:42.009Z,99369.13
2022-08-26T11:10:20.868Z,99374.81
2022-08-26T11:12:55.249Z,99373.59
2022-08-26T11:15:29.503Z,99370.63
2022-08-26T11:18:11.544Z,99371.16
2022-08-26T11:20:45.894Z,99375.00
2022-08-26T11:23:13.026Z,99372.97
2022-08-26T11:26:04.350Z,99369.25
2022-08-26T11:28:36.996Z,99371.41
2022-08-26T11:31:08.712Z,99359.09
2022-08-26T11:33:52.416Z,99362.47
2022-08-26T11:36:45.621Z,99360.63
2022-08-26T11:39:18.592Z,99359.41
2022-08-26T11:41:48.468Z,99358.91
2022-08-26T11:44:23.278Z,99348.75
2022-08-26T11:46:59.689Z,99360.75
2022-08-26T11:49:33.432Z,99360.31
2022-08-26T11:52:22.228Z,99360.00
2022-08-26T11:55:15.206Z,99363.66
2022-08-26T11:57:49.864Z,99359.03
2022-08-26T12:00:23.834Z,99357.34
2022-08-26T12:02:52.530Z,99348.78
2022-08-26T12:05:38.299Z,99348.03
2022-08-26T12:08:11.572Z,99352.72
2022-08-26T12:10:39.067Z,99351.34
2022-08-26T12:13:17.924Z,99347.13
2022-08-26T12:15:53.417Z,99344.97
2022-08-26T12:18:30.120Z,99345.50
2022-08-26T12:20:59.968Z,99345.25
2022-08-26T12:23:32.591Z,99346.78
2022-08-26T12:26:07.364Z,99344.56
2022-08-26T12:29:12.658Z,99342.72
2022-08-26T12:32:07.543Z,99337.47
2022-08-26T12:34:34.700Z,99341.38
2022-08-26T12:37:03.220Z,99337.19
2022-08-26T12:39:36.911Z,99335.47
2022-08-26T12:42:07.948Z,99335.94
2022-08-26T12:44:37.960Z,99332.72
2022-08-26T12:47:23.415Z,99339.38
2022-08-26T12:50:18.326Z,99328.69
2022-08-26T12:53:09.744Z,99327.34
2022-08-26T12:55:43.860Z,99336.22
2022-08-26T12:58:16.933Z,99329.63
2022-08-26T13:01:09.015Z,99319.56
2022-08-26T13:03:38.865Z,99336.44
2022-08-26T13:06:31.537Z,99324.56
2022-08-26T13:08:58.534Z,99326.56
2022-08-26T13:11:28.074Z,99328.25
2022-08-26T13:14:07.001Z,99332.16
2022-08-26T13:16:35.235Z,99329.16
2022-08-26T13:19:10.395Z,99342.47
2022-08-26T13:21:44.799Z,99336.38
2022-08-26T13:24:14.945Z,99338.00
2022-08-26T13:26:46.503Z,99340.50
2022-08-26T13:29:13.842Z,99338.00
2022-08-26T13:31:44.133Z,99345.78
2022-08-26T13:34:15.558Z,99340.44
2022-08-26T13:36:44.976Z,99345.69
2022-08-26T13:39:12.441Z,99349.06
2022-08-26T13:41:39.658Z,99349.00
2022-08-26T13:44:07.108Z,99349.16
2022-08-26T13:46:34.429Z,99354.72
2022-08-26T13:49:01.459Z,99356.59
2022-08-26T13:51:29.059Z,99355.50
2022-08-26T13:53:57.657Z,99352.66
2022-08-26T13:56:29.504Z,99348.66
2022-08-26T13:58:57.674Z,99354.16
2022-08-26T14:01:25.678Z,99353.28
2022-08-26T14:03:53.146Z,99340.72
2022-08-26T14:06:20.962Z,99354.94
2022-08-26T14:08:48.716Z,99355.09
2022-08-26T14:11:15.979Z,99360.84
2022-08-26T14:13:43.264Z,99349.13
2022-08-26T14:16:22.124Z,99359.91
2022-08-26T14:18:51.012Z,99364.78
2022-08-26T14:21:18.359Z,99351.06
2022-08-26T14:23:45.396Z,99356.53
2022-08-26T14:26:19.011Z,99358.06
2022-08-26T14:28:59.867Z,99360.25
2022-08-26T14:31:29.590Z,99359.44
2022-08-26T14:34:03.165Z,99359.28
2022-08-26T14:36:33.008Z,99366.75
2022-08-26T14:39:03.970Z,99358.56
2022-08-26T14:41:32.239Z,99368.94
2022-08-26T14:44:03.334Z,99362.13
2022-08-26T14:46:34.206Z,99348.44
2022-08-26T14:49:05.251Z,99365.25
2022-08-26T14:51:34.525Z,99368.97
2022-08-26T14:54:20.028Z,99365.09
2022-08-26T14:57:00.500Z,99364.66
2022-08-26T14:59:34.014Z,99367.06
2022-08-26T15:02:01.272Z,99368.69
2022-08-26T15:04:28.626Z,99377.09
2022-08-26T15:06:57.715Z,99376.78
2022-08-26T15:09:25.603Z,99371.25
2022-08-26T15:11:53.258Z,99372.63
2022-08-26T15:14:22.181Z,99382.38
2022-08-26T15:16:51.103Z,99386.69
2022-08-26T15:19:19.057Z,99389.72
2022-08-26T15:21:49.780Z,99384.25
2022-08-26T15:24:20.287Z,99384.75
2022-08-26T15:26:48.704Z,99388.97
2022-08-26T15:29:15.946Z,99387.28
2022-08-26T15:31:43.134Z,99385.59
2022-08-26T15:34:16.490Z,99384.38
2022-08-26T15:36:46.393Z,99390.91
2022-08-26T15:39:14.747Z,99389.22
2022-08-26T15:41:41.722Z,99390.66
2022-08-26T15:44:10.248Z,99384.34
2022-08-26T15:46:39.231Z,99384.75
2022-08-26T15:49:07.208Z,99385.56
2022-08-26T15:51:45.538Z,99382.38
2022-08-26T15:54:14.470Z,99385.66
2022-08-26T15:56:41.299Z,99383.44
2022-08-26T15:59:11.720Z,99397.44
2022-08-26T16:01:39.937Z,99390.59
2022-08-26T16:04:07.372Z,99394.03
2022-08-26T16:06:36.792Z,99395.38
2022-08-26T16:09:04.707Z,99393.31
2022-08-26T16:11:31.606Z,99393.56
2022-08-26T16:13:58.579Z,99382.63
2022-08-26T16:16:25.906Z,99379.69
2022-08-26T16:18:52.919Z,99383.56
2022-08-26T16:21:23.188Z,99386.72
2022-08-26T16:23:50.128Z,99391.16
2022-08-26T16:26:24.882Z,99383.34
2022-08-26T16:28:52.747Z,99379.59
2022-08-26T16:31:21.361Z,99389.66
2022-08-26T16:33:48.238Z,99385.78
2022-08-26T16:36:15.206Z,99387.13
2022-08-26T16:38:47.691Z,99391.69
2022-08-26T16:41:14.614Z,99386.09
2022-08-26T16:43:41.440Z,99400.78
2022-08-26T16:46:08.408Z,99398.19
2022-08-26T16:48:35.345Z,99394.06
2022-08-26T16:51:02.106Z,99395.34
2022-08-26T16:53:29.160Z,99394.22
2022-08-26T16:55:55.958Z,99401.56
2022-08-26T16:58:22.939Z,99401.09
2022-08-26T17:00:49.944Z,99399.44
2022-08-26T17:03:17.485Z,99399.44
2022-08-26T17:05:44.675Z,99400.47
2022-08-26T17:08:14.533Z,99403.16
2022-08-26T17:10:51.803Z,99406.72
2022-08-26T17:13:25.977Z,99407.34
2022-08-26T17:16:05.047Z,99394.59
2022-08-26T17:18:33.528Z,99392.38
2022-08-26T17:21:06.802Z,99391.50
2022-08-26T17:23:34.486Z,99400.22
2022-08-26T17:26:01.313Z,99398.94
2022-08-26T17:28:28.275Z,99400.38
2022-08-26T17:30:59.000Z,99401.84
2022-08-26T17:33:26.332Z,99398.53
2022-08-26T17:35:53.822Z,99400.81
2022-08-26T17:38:21.476Z,99401.09
2022-08-26T17:40:50.490Z,99406.03
2022-08-26T17:43:18.060Z,99403.38
2022-08-26T17:45:45.124Z,99404.19
2022-08-26T17:48:12.746Z,99407.66
2022-08-26T17:50:41.410Z,99409.97
2022-08-26T17:53:08.795Z,99404.50
2022-08-26T17:55:41.853Z,99405.25
2022-08-26T17:58:12.033Z,99407.00
2022-08-26T18:00:50.818Z,99406.78
2022-08-26T18:03:19.142Z,99397.63
2022-08-26T18:05:51.547Z,99400.72
2022-08-26T18:08:19.497Z,99395.78
2022-08-26T18:10:46.880Z,99391.69
2022-08-26T18:13:14.942Z,99388.28
2022-08-26T18:15:43.804Z,99388.75
2022-08-26T18:18:12.009Z,99388.22
2022-08-26T18:20:40.394Z,99384.09
2022-08-26T18:23:07.465Z,99386.09
2022-08-26T18:25:34.601Z,99388.25
2022-08-26T18:28:01.496Z,99384.72
2022-08-26T18:30:28.239Z,99381.31
2022-08-26T18:32:55.029Z,99380.63
2022-08-26T18:35:21.959Z,99375.53
2022-08-26T18:37:48.826Z,99384.06
2022-08-26T18:40:16.439Z,99378.28
2022-08-26T18:42:44.026Z,99382.41
2022-08-26T18:45:16.279Z,99377.63
2022-08-26T18:47:43.977Z,99378.91
2022-08-26T18:50:11.278Z,99374.94
2022-08-26T18:52:38.153Z,99376.25
2022-08-26T18:55:05.437Z,99373.72
2022-08-26T18:57:32.305Z,99376.13
2022-08-26T18:59:59.257Z,99377.69
2022-08-26T19:02:26.245Z,99382.81
2022-08-26T19:04:53.100Z,99386.22
2022-08-26T19:07:20.655Z,99381.44
2022-08-26T19:09:47.620Z,99377.34
2022-08-26T19:12:21.330Z,99386.84
2022-08-26T19:14:48.055Z,99381.19
2022-08-26T19:17:15.215Z,99378.75
2022-08-26T19:19:42.026Z,99374.66
2022-08-26T19:22:08.870Z,99384.13
2022-08-26T19:24:35.709Z,99384.53
2022-08-26T19:27:03.608Z,99385.88
2022-08-26T19:29:33.890Z,99390.53
2022-08-26T19:32:02.119Z,99400.25
2022-08-26T19:34:29.523Z,99398.22
2022-08-26T19:36:58.367Z,99404.28
2022-08-26T19:39:26.545Z,99398.72
2022-08-26T19:41:53.874Z,99402.78
2022-08-26T19:44:41.483Z,99404.31
2022-08-26T19:47:10.027Z,99406.78
2022-08-26T19:49:37.666Z,99404.53
2022-08-26T19:52:05.720Z,99404.91
2022-08-26T19:54:33.255Z,99400.66
2022-08-26T19:57:00.225Z,99405.75
2022-08-26T19:59:27.131Z,99405.34
2022-08-26T20:02:01.200Z,99411.19
2022-08-26T20:04:31.708Z,99418.00
2022-08-26T20:07:00.903Z,99407.84
2022-08-26T20:09:29.976Z,99403.88
2022-08-26T20:11:57.408Z,99409.00
2022-08-26T20:14:26.002Z,99414.97
2022-08-26T20:16:53.032Z,99411.88
2022-08-26T20:19:38.546Z,99419.38
2022-08-26T20:22:06.432Z,99412.75
2022-08-26T20:24:35.156Z,99408.72
2022-08-26T20:27:06.839Z,99408.78
2022-08-26T20:29:34.892Z,99408.66
2022-08-26T20:32:02.796Z,99402.19
2022-08-26T20:34:30.180Z,99401.78
2022-08-26T20:36:57.046Z,99400.69
2022-08-26T20:39:23.936Z,99409.47
2022-08-26T20:41:51.173Z,99399.44
2022-08-26T20:44:18.069Z,99399.63
2022-08-26T20:46:45.456Z,99396.38
2022-08-26T20:49:13.454Z,99402.72
2022-08-26T20:51:42.410Z,99404.97
2022-08-26T20:54:11.704Z,99407.25
2022-08-26T20:56:39.393Z,99409.81
2022-08-26T20:59:07.658Z,99405.38
2022-08-26T21:01:36.870Z,99404.94
2022-08-26T21:04:12.184Z,99400.84
2022-08-26T21:06:39.056Z,99401.00
2022-08-26T21:09:10.925Z,99400.56
2022-08-26T21:11:38.606Z,99398.56
2022-08-26T21:14:07.074Z,99399.25
2022-08-26T21:16:44.828Z,99397.13
2022-08-26T21:19:14.597Z,99392.63
2022-08-26T21:21:41.998Z,99395.03
2022-08-26T21:24:09.393Z,99394.16
2022-08-26T21:26:36.667Z,99387.94
2022-08-26T21:29:04.295Z,99390.78
2022-08-26T21:31:32.125Z,99384.84
2022-08-26T21:33:59.805Z,99381.44
2022-08-26T21:36:26.860Z,99383.81
2022-08-26T21:38:59.077Z,99385.53
2022-08-26T21:41:27.289Z,99389.06
2022-08-26T21:43:59.219Z,99380.28
2022-08-26T21:46:29.165Z,99379.59
2022-08-26T21:49:01.564Z,99381.88
2022-08-26T21:51:34.480Z,99388.38
2022-08-26T21:54:03.684Z,99385.13
2022-08-26T21:56:34.644Z,99384.72
2022-08-26T21:59:02.156Z,99386.84
2022-08-26T22:01:34.678Z,99382.59
2022-08-26T22:04:03.984Z,99381.19
2022-08-26T22:06:33.736Z,99382.63
2022-08-26T22:09:00.936Z,99376.66
2022-08-26T22:11:28.678Z,99380.34
2022-08-26T22:13:56.972Z,99379.81
2022-08-26T22:16:26.820Z,99376.38
2022-08-26T22:18:54.871Z,99374.84
2022-08-26T22:21:24.393Z,99375.97
2022-08-26T22:23:51.497Z,99376.25
2022-08-26T22:26:25.451Z,99384.31
2022-08-26T22:28:59.156Z,99378.94
2022-08-26T22:31:37.960Z,99377.22
2022-08-26T22:34:10.226Z,99375.78
2022-08-26T22:36:43.058Z,99376.06
2022-08-26T22:39:12.929Z,99373.66
2022-08-26T22:41:40.292Z,99373.66
2022-08-26T22:44:07.591Z,99376.06
2022-08-26T22:46:36.763Z,99373.00
2022-08-26T22:49:05.077Z,99370.16
2022-08-26T22:51:32.209Z,99378.09
2022-08-26T22:53:59.499Z,99369.75
2022-08-26T22:56:26.422Z,99368.44
2022-08-26T22:58:53.457Z,99373.69
2022-08-26T23:01:20.530Z,99374.41
2022-08-26T23:03:47.569Z,99369.03
2022-08-26T23:06:14.406Z,99365.63
2022-08-26T23:08:42.064Z,99368.72
2022-08-26T23:11:10.860Z,99374.56
2022-08-26T23:13:38.752Z,99366.78
2022-08-26T23:16:09.265Z,99366.91
2022-08-26T23:18:36.383Z,99359.97
2022-08-26T23:21:03.467Z,99361.94
2022-08-26T23:23:31.193Z,99356.13
2022-08-26T23:25:58.491Z,99350.00
2022-08-26T23:28:25.861Z,99355.69
2022-08-26T23:30:53.741Z,99356.28
2022-08-26T23:33:21.384Z,99349.75
2022-08-26T23:35:48.234Z,99358.09
2022-08-26T23:38:16.303Z,99350.56
2022-08-26T23:40:43.368Z,99359.34
2022-08-26T23:43:11.648Z,99344.50
2022-08-26T23:45:38.947Z,99340.66
2022-08-26T23:48:06.823Z,99347.84
2022-08-26T23:50:52.582Z,99344.16
2022-08-26T23:53:22.327Z,99342.56
2022-08-26T23:55:51.983Z,99342.28
2022-08-26T23:58:20.974Z,99336.16
